sensor_id;sensor_type;location;lat;lon;timestamp;temperature;humidity
8780;DHT22;62328;51.19929245;4.42130175;2023-04-03T00:01:34;6.50;99.90
8780;DHT22;62328;51.19929245;4.42130175;2023-04-03T00:04:01;6.50;99.90
8780;DHT22;62328;51.19929245;4.42130175;2023-04-03T00:06:27;6.50;99.90
8780;DHT22;62328;51.19929245;4.42130175;2023-04-03T00:08:55;6.50;99.90
8780;DHT22;62328;51.19929245;4.42130175;2023-04-03T00:11:21;6.50;99.90
8780;DHT22;62328;51.19929245;4.42130175;2023-04-03T00:13:50;6.50;99.90
8780;DHT22;62328;51.19929245;4.42130175;2023-04-03T00:16:17;6.50;99.90
8780;DHT22;62328;51.19929245;4.42130175;2023-04-03T00:18:44;6.40;99.90
8780;DHT22;62328;51.19929245;4.42130175;2023-04-03T00:21:12;6.40;99.90
8780;DHT22;62328;51.19929245;4.42130175;2023-04-03T00:23:39;6.40;99.90
8780;DHT22;62328;51.19929245;4.42130175;2023-04-03T00:26:06;6.40;99.90
8780;DHT22;62328;51.19929245;4.42130175;2023-04-03T00:28:33;6.30;99.90
8780;DHT22;62328;51.19929245;4.42130175;2023-04-03T00:31:02;6.30;99.90
8780;DHT22;62328;51.19929245;4.42130175;2023-04-03T00:33:28;6.30;99.90
8780;DHT22;62328;51.19929245;4.42130175;2023-04-03T00:35:55;6.30;99.90
8780;DHT22;62328;51.19929245;4.42130175;2023-04-03T00:38:22;6.30;99.90
8780;DHT22;62328;51.19929245;4.42130175;2023-04-03T00:40:49;6.30;99.90
8780;DHT22;62328;51.19929245;4.42130175;2023-04-03T00:43:23;6.30;99.90
8780;DHT22;62328;51.19929245;4.42130175;2023-04-03T00:45:50;6.30;99.90
8780;DHT22;62328;51.19929245;4.42130175;2023-04-03T00:48:21;6.50;99.90
8780;DHT22;62328;51.19929245;4.42130175;2023-04-03T00:50:49;6.30;99.90
8780;DHT22;62328;51.19929245;4.42130175;2023-04-03T00:53:19;6.30;99.90
8780;DHT22;62328;51.19929245;4.42130175;2023-04-03T00:55:48;6.30;99.90
8780;DHT22;62328;51.19929245;4.42130175;2023-04-03T00:58:16;6.20;99.90
8780;DHT22;62328;51.19929245;4.42130175;2023-04-03T01:00:48;6.30;99.90
8780;DHT22;62328;51.19929245;4.42130175;2023-04-03T01:03:15;6.20;99.90
8780;DHT22;62328;51.19929245;4.42130175;2023-04-03T01:05:43;6.20;99.90
8780;DHT22;62328;51.19929245;4.42130175;2023-04-03T01:08:10;6.20;99.90
8780;DHT22;62328;51.19929245;4.42130175;2023-04-03T01:10:37;6.20;99.90
8780;DHT22;62328;51.19929245;4.42130175;2023-04-03T01:13:18;6.10;99.90
8780;DHT22;62328;51.19929245;4.42130175;2023-04-03T01:15:46;6.20;99.90
8780;DHT22;62328;51.19929245;4.42130175;2023-04-03T01:18:12;6.10;99.90
8780;DHT22;62328;51.19929245;4.42130175;2023-04-03T01:21:08;6.10;99.90
8780;DHT22;62328;51.19929245;4.42130175;2023-04-03T01:23:54;6.10;99.90
8780;DHT22;62328;51.19929245;4.42130175;2023-04-03T01:26:24;6.10;99.90
8780;DHT22;62328;51.19929245;4.42130175;2023-04-03T01:28:53;6.10;99.90
8780;DHT22;62328;51.19929245;4.42130175;2023-04-03T01:31:23;6.10;99.90
8780;DHT22;62328;51.19929245;4.42130175;2023-04-03T01:33:52;6.10;99.90
8780;DHT22;62328;51.19929245;4.42130175;2023-04-03T01:36:22;6.10;99.90
8780;DHT22;62328;51.19929245;4.42130175;2023-04-03T01:38:50;6.10;99.90
8780;DHT22;62328;51.19929245;4.42130175;2023-04-03T01:41:17;6.10;99.90
8780;DHT22;62328;51.19929245;4.42130175;2023-04-03T01:43:44;6.00;99.90
8780;DHT22;62328;51.19929245;4.42130175;2023-04-03T01:46:10;6.00;99.90
8780;DHT22;62328;51.19929245;4.42130175;2023-04-03T01:48:38;6.00;99.90
8780;DHT22;62328;51.19929245;4.42130175;2023-04-03T01:51:06;6.00;99.90
8780;DHT22;62328;51.19929245;4.42130175;2023-04-03T01:53:33;6.00;99.90
8780;DHT22;62328;51.19929245;4.42130175;2023-04-03T01:55:59;6.00;99.90
8780;DHT22;62328;51.19929245;4.42130175;2023-04-03T01:58:26;6.00;99.90
8780;DHT22;62328;51.19929245;4.42130175;2023-04-03T02:00:53;6.00;99.90
8780;DHT22;62328;51.19929245;4.42130175;2023-04-03T02:33:18;5.80;99.90
8780;DHT22;62328;51.19929245;4.42130175;2023-04-03T02:35:45;5.70;99.90
8780;DHT22;62328;51.19929245;4.42130175;2023-04-03T02:38:18;5.70;99.90
8780;DHT22;62328;51.19929245;4.42130175;2023-04-03T02:40:45;5.70;99.90
8780;DHT22;62328;51.19929245;4.42130175;2023-04-03T02:43:12;5.70;99.90
8780;DHT22;62328;51.19929245;4.42130175;2023-04-03T02:45:38;5.70;99.90
8780;DHT22;62328;51.19929245;4.42130175;2023-04-03T02:48:06;5.70;99.90
8780;DHT22;62328;51.19929245;4.42130175;2023-04-03T02:50:34;5.70;99.90
8780;DHT22;62328;51.19929245;4.42130175;2023-04-03T02:53:00;5.70;99.90
8780;DHT22;62328;51.19929245;4.42130175;2023-04-03T02:55:27;5.70;99.90
8780;DHT22;62328;51.19929245;4.42130175;2023-04-03T02:57:54;5.60;99.90
8780;DHT22;62328;51.19929245;4.42130175;2023-04-03T03:00:21;5.60;99.90
8780;DHT22;62328;51.19929245;4.42130175;2023-04-03T03:02:49;5.60;99.90
8780;DHT22;62328;51.19929245;4.42130175;2023-04-03T03:05:15;5.60;99.90
8780;DHT22;62328;51.19929245;4.42130175;2023-04-03T03:07:44;5.60;99.90
8780;DHT22;62328;51.19929245;4.42130175;2023-04-03T03:10:10;5.60;99.90
8780;DHT22;62328;51.19929245;4.42130175;2023-04-03T03:12:37;5.60;99.90
8780;DHT22;62328;51.19929245;4.42130175;2023-04-03T03:15:05;5.60;99.90
8780;DHT22;62328;51.19929245;4.42130175;2023-04-03T03:17:32;5.60;99.90
8780;DHT22;62328;51.19929245;4.42130175;2023-04-03T03:19:58;5.50;99.90
8780;DHT22;62328;51.19929245;4.42130175;2023-04-03T03:22:27;5.60;99.90
8780;DHT22;62328;51.19929245;4.42130175;2023-04-03T03:24:56;5.50;99.90
8780;DHT22;62328;51.19929245;4.42130175;2023-04-03T03:27:22;5.50;99.90
8780;DHT22;62328;51.19929245;4.42130175;2023-04-03T03:29:50;5.50;99.90
8780;DHT22;62328;51.19929245;4.42130175;2023-04-03T03:32:17;5.50;99.90
8780;DHT22;62328;51.19929245;4.42130175;2023-04-03T03:34:43;5.50;99.90
8780;DHT22;62328;51.19929245;4.42130175;2023-04-03T03:37:10;5.50;99.90
8780;DHT22;62328;51.19929245;4.42130175;2023-04-03T03:39:37;5.50;99.90
8780;DHT22;62328;51.19929245;4.42130175;2023-04-03T03:42:05;5.40;99.90
8780;DHT22;62328;51.19929245;4.42130175;2023-04-03T03:44:32;5.50;99.90
8780;DHT22;62328;51.19929245;4.42130175;2023-04-03T03:46:59;5.50;99.90
8780;DHT22;62328;51.19929245;4.42130175;2023-04-03T03:49:26;5.40;99.90
8780;DHT22;62328;51.19929245;4.42130175;2023-04-03T03:51:53;5.40;99.90
8780;DHT22;62328;51.19929245;4.42130175;2023-04-03T03:54:19;5.40;99.90
8780;DHT22;62328;51.19929245;4.42130175;2023-04-03T03:56:46;5.40;99.90
8780;DHT22;62328;51.19929245;4.42130175;2023-04-03T03:59:14;5.40;99.90
8780;DHT22;62328;51.19929245;4.42130175;2023-04-03T04:01:42;5.40;99.90
8780;DHT22;62328;51.19929245;4.42130175;2023-04-03T04:04:08;5.40;99.90
8780;DHT22;62328;51.19929245;4.42130175;2023-04-03T04:06:35;5.40;99.90
8780;DHT22;62328;51.19929245;4.42130175;2023-04-03T04:09:02;5.30;99.90
8780;DHT22;62328;51.19929245;4.42130175;2023-04-03T04:11:29;5.30;99.90
8780;DHT22;62328;51.19929245;4.42130175;2023-04-03T04:13:55;5.30;99.90
8780;DHT22;62328;51.19929245;4.42130175;2023-04-03T04:16:23;5.30;99.90
8780;DHT22;62328;51.19929245;4.42130175;2023-04-03T04:18:50;5.30;99.90
8780;DHT22;62328;51.19929245;4.42130175;2023-04-03T04:21:17;5.30;99.90
8780;DHT22;62328;51.19929245;4.42130175;2023-04-03T04:23:44;5.30;99.90
8780;DHT22;62328;51.19929245;4.42130175;2023-04-03T04:26:11;5.30;99.90
8780;DHT22;62328;51.19929245;4.42130175;2023-04-03T04:28:37;5.20;99.90
8780;DHT22;62328;51.19929245;4.42130175;2023-04-03T04:31:04;5.30;99.90
8780;DHT22;62328;51.19929245;4.42130175;2023-04-03T04:33:32;5.20;99.90
8780;DHT22;62328;51.19929245;4.42130175;2023-04-03T04:35:59;5.20;99.90
8780;DHT22;62328;51.19929245;4.42130175;2023-04-03T04:38:26;5.20;99.90
8780;DHT22;62328;51.19929245;4.42130175;2023-04-03T04:40:52;5.20;99.90
8780;DHT22;62328;51.19929245;4.42130175;2023-04-03T04:43:19;5.20;99.90
8780;DHT22;62328;51.19929245;4.42130175;2023-04-03T04:45:46;5.20;99.90
8780;DHT22;62328;51.19929245;4.42130175;2023-04-03T04:48:13;5.20;99.90
8780;DHT22;62328;51.19929245;4.42130175;2023-04-03T04:50:41;5.20;99.90
8780;DHT22;62328;51.19929245;4.42130175;2023-04-03T04:53:08;5.10;99.90
8780;DHT22;62328;51.19929245;4.42130175;2023-04-03T04:55:35;5.10;99.90
8780;DHT22;62328;51.19929245;4.42130175;2023-04-03T04:58:02;5.10;99.90
8780;DHT22;62328;51.19929245;4.42130175;2023-04-03T05:00:28;5.10;99.90
8780;DHT22;62328;51.19929245;4.42130175;2023-04-03T05:02:55;5.10;99.90
8780;DHT22;62328;51.19929245;4.42130175;2023-04-03T05:05:22;5.10;99.90
8780;DHT22;62328;51.19929245;4.42130175;2023-04-03T05:07:50;5.10;99.90
8780;DHT22;62328;51.19929245;4.42130175;2023-04-03T05:10:17;5.10;99.90
8780;DHT22;62328;51.19929245;4.42130175;2023-04-03T05:12:44;5.10;99.90
8780;DHT22;62328;51.19929245;4.42130175;2023-04-03T05:15:11;5.00;99.90
8780;DHT22;62328;51.19929245;4.42130175;2023-04-03T05:17:38;5.00;99.90
8780;DHT22;62328;51.19929245;4.42130175;2023-04-03T05:20:05;5.00;99.90
8780;DHT22;62328;51.19929245;4.42130175;2023-04-03T05:22:33;5.00;99.90
8780;DHT22;62328;51.19929245;4.42130175;2023-04-03T05:25:01;5.00;99.90
8780;DHT22;62328;51.19929245;4.42130175;2023-04-03T05:27:28;5.10;99.90
8780;DHT22;62328;51.19929245;4.42130175;2023-04-03T05:29:55;5.00;99.90
8780;DHT22;62328;51.19929245;4.42130175;2023-04-03T05:32:22;5.00;99.90
8780;DHT22;62328;51.19929245;4.42130175;2023-04-03T05:34:49;5.00;99.90
8780;DHT22;62328;51.19929245;4.42130175;2023-04-03T05:37:16;5.00;99.90
8780;DHT22;62328;51.19929245;4.42130175;2023-04-03T05:39:43;5.00;99.90
8780;DHT22;62328;51.19929245;4.42130175;2023-04-03T05:42:12;5.00;99.90
8780;DHT22;62328;51.19929245;4.42130175;2023-04-03T05:44:39;5.00;99.90
8780;DHT22;62328;51.19929245;4.42130175;2023-04-03T05:47:06;5.00;99.90
8780;DHT22;62328;51.19929245;4.42130175;2023-04-03T05:49:33;5.00;99.90
8780;DHT22;62328;51.19929245;4.42130175;2023-04-03T05:52:00;5.00;99.90
8780;DHT22;62328;51.19929245;4.42130175;2023-04-03T05:54:28;5.00;99.90
8780;DHT22;62328;51.19929245;4.42130175;2023-04-03T05:56:55;5.00;99.90
8780;DHT22;62328;51.19929245;4.42130175;2023-04-03T05:59:23;5.00;99.90
8780;DHT22;62328;51.19929245;4.42130175;2023-04-03T06:01:50;5.00;99.90
8780;DHT22;62328;51.19929245;4.42130175;2023-04-03T06:04:17;5.10;99.90
8780;DHT22;62328;51.19929245;4.42130175;2023-04-03T06:06:48;5.10;99.90
8780;DHT22;62328;51.19929245;4.42130175;2023-04-03T06:09:17;5.10;99.90
8780;DHT22;62328;51.19929245;4.42130175;2023-04-03T06:11:44;5.10;99.90
8780;DHT22;62328;51.19929245;4.42130175;2023-04-03T06:14:11;5.10;99.90
8780;DHT22;62328;51.19929245;4.42130175;2023-04-03T06:16:39;5.10;99.90
8780;DHT22;62328;51.19929245;4.42130175;2023-04-03T06:19:07;5.10;99.90
8780;DHT22;62328;51.19929245;4.42130175;2023-04-03T06:21:34;5.10;99.90
8780;DHT22;62328;51.19929245;4.42130175;2023-04-03T06:24:01;5.20;99.90
8780;DHT22;62328;51.19929245;4.42130175;2023-04-03T06:26:28;5.20;99.90
8780;DHT22;62328;51.19929245;4.42130175;2023-04-03T06:28:55;5.20;99.90
8780;DHT22;62328;51.19929245;4.42130175;2023-04-03T06:31:22;5.20;99.90
8780;DHT22;62328;51.19929245;4.42130175;2023-04-03T06:33:52;5.30;99.90
8780;DHT22;62328;51.19929245;4.42130175;2023-04-03T06:36:19;5.30;99.90
8780;DHT22;62328;51.19929245;4.42130175;2023-04-03T06:38:51;5.30;99.90
8780;DHT22;62328;51.19929245;4.42130175;2023-04-03T06:41:22;5.30;99.90
8780;DHT22;62328;51.19929245;4.42130175;2023-04-03T06:43:52;5.30;99.90
8780;DHT22;62328;51.19929245;4.42130175;2023-04-03T06:46:22;5.40;99.90
8780;DHT22;62328;51.19929245;4.42130175;2023-04-03T06:48:55;5.40;99.90
8780;DHT22;62328;51.19929245;4.42130175;2023-04-03T06:51:23;5.50;99.90
8780;DHT22;62328;51.19929245;4.42130175;2023-04-03T06:53:56;5.50;99.90
8780;DHT22;62328;51.19929245;4.42130175;2023-04-03T06:56:24;5.50;99.90
8780;DHT22;62328;51.19929245;4.42130175;2023-04-03T06:58:55;5.60;99.90
8780;DHT22;62328;51.19929245;4.42130175;2023-04-03T07:01:25;5.60;99.90
8780;DHT22;62328;51.19929245;4.42130175;2023-04-03T07:03:58;5.70;99.90
8780;DHT22;62328;51.19929245;4.42130175;2023-04-03T07:06:26;5.70;99.90
8780;DHT22;62328;51.19929245;4.42130175;2023-04-03T07:08:56;5.80;99.90
8780;DHT22;62328;51.19929245;4.42130175;2023-04-03T07:11:23;5.80;99.90
8780;DHT22;62328;51.19929245;4.42130175;2023-04-03T07:13:55;5.80;99.90
8780;DHT22;62328;51.19929245;4.42130175;2023-04-03T07:16:24;5.90;99.90
8780;DHT22;62328;51.19929245;4.42130175;2023-04-03T07:18:59;5.90;99.90
8780;DHT22;62328;51.19929245;4.42130175;2023-04-03T07:21:25;6.00;99.90
8780;DHT22;62328;51.19929245;4.42130175;2023-04-03T07:23:58;6.10;99.90
8780;DHT22;62328;51.19929245;4.42130175;2023-04-03T07:26:26;6.10;99.90
8780;DHT22;62328;51.19929245;4.42130175;2023-04-03T07:28:56;6.20;99.90
8780;DHT22;62328;51.19929245;4.42130175;2023-04-03T07:31:23;6.30;99.90
8780;DHT22;62328;51.19929245;4.42130175;2023-04-03T07:33:53;6.40;99.90
8780;DHT22;62328;51.19929245;4.42130175;2023-04-03T07:36:23;6.40;99.90
8780;DHT22;62328;51.19929245;4.42130175;2023-04-03T07:38:55;6.50;99.90
8780;DHT22;62328;51.19929245;4.42130175;2023-04-03T07:41:23;6.60;99.90
8780;DHT22;62328;51.19929245;4.42130175;2023-04-03T07:43:52;6.70;99.90
8780;DHT22;62328;51.19929245;4.42130175;2023-04-03T07:46:23;6.70;99.90
8780;DHT22;62328;51.19929245;4.42130175;2023-04-03T07:48:54;6.80;99.90
8780;DHT22;62328;51.19929245;4.42130175;2023-04-03T07:51:23;6.80;99.90
8780;DHT22;62328;51.19929245;4.42130175;2023-04-03T07:53:54;6.90;99.90
8780;DHT22;62328;51.19929245;4.42130175;2023-04-03T07:56:22;7.00;99.90
8780;DHT22;62328;51.19929245;4.42130175;2023-04-03T07:58:53;7.10;99.90
8780;DHT22;62328;51.19929245;4.42130175;2023-04-03T08:01:23;7.20;99.90
8780;DHT22;62328;51.19929245;4.42130175;2023-04-03T08:03:53;7.30;99.90
8780;DHT22;62328;51.19929245;4.42130175;2023-04-03T08:06:24;7.40;99.90
8780;DHT22;62328;51.19929245;4.42130175;2023-04-03T08:08:54;7.50;99.90
8780;DHT22;62328;51.19929245;4.42130175;2023-04-03T08:11:23;7.60;99.90
8780;DHT22;62328;51.19929245;4.42130175;2023-04-03T08:13:54;7.70;99.90
8780;DHT22;62328;51.19929245;4.42130175;2023-04-03T08:16:24;7.80;99.90
8780;DHT22;62328;51.19929245;4.42130175;2023-04-03T08:18:55;7.90;99.90
8780;DHT22;62328;51.19929245;4.42130175;2023-04-03T08:21:26;7.90;99.90
8780;DHT22;62328;51.19929245;4.42130175;2023-04-03T08:23:55;8.10;99.90
8780;DHT22;62328;51.19929245;4.42130175;2023-04-03T08:26:25;8.10;99.90
8780;DHT22;62328;51.19929245;4.42130175;2023-04-03T08:28:55;8.20;99.90
8780;DHT22;62328;51.19929245;4.42130175;2023-04-03T08:31:25;8.30;99.90
8780;DHT22;62328;51.19929245;4.42130175;2023-04-03T08:33:56;8.40;99.90
8780;DHT22;62328;51.19929245;4.42130175;2023-04-03T08:36:27;8.40;99.90
8780;DHT22;62328;51.19929245;4.42130175;2023-04-03T08:38:58;8.50;99.90
8780;DHT22;62328;51.19929245;4.42130175;2023-04-03T08:41:31;8.60;99.90
8780;DHT22;62328;51.19929245;4.42130175;2023-04-03T08:44:09;8.60;99.90
8780;DHT22;62328;51.19929245;4.42130175;2023-04-03T08:46:49;8.70;99.90
8780;DHT22;62328;51.19929245;4.42130175;2023-04-03T08:49:28;8.90;99.90
8780;DHT22;62328;51.19929245;4.42130175;2023-04-03T08:52:11;8.90;99.90
8780;DHT22;62328;51.19929245;4.42130175;2023-04-03T08:54:49;9.00;99.90
8780;DHT22;62328;51.19929245;4.42130175;2023-04-03T08:57:29;9.10;99.90
8780;DHT22;62328;51.19929245;4.42130175;2023-04-03T09:00:01;9.30;99.90
8780;DHT22;62328;51.19929245;4.42130175;2023-04-03T09:02:33;9.40;99.90
8780;DHT22;62328;51.19929245;4.42130175;2023-04-03T09:05:15;9.40;99.90
8780;DHT22;62328;51.19929245;4.42130175;2023-04-03T09:07:49;9.60;99.90
8780;DHT22;62328;51.19929245;4.42130175;2023-04-03T09:10:24;9.60;99.90
8780;DHT22;62328;51.19929245;4.42130175;2023-04-03T09:13:07;9.70;99.90
8780;DHT22;62328;51.19929245;4.42130175;2023-04-03T09:15:44;9.80;99.90
8780;DHT22;62328;51.19929245;4.42130175;2023-04-03T09:18:20;9.90;99.90
8780;DHT22;62328;51.19929245;4.42130175;2023-04-03T09:21:23;10.00;99.90
8780;DHT22;62328;51.19929245;4.42130175;2023-04-03T09:24:00;10.00;99.90
8780;DHT22;62328;51.19929245;4.42130175;2023-04-03T09:26:31;10.10;99.90
8780;DHT22;62328;51.19929245;4.42130175;2023-04-03T09:29:07;10.20;99.90
8780;DHT22;62328;51.19929245;4.42130175;2023-04-03T09:31:43;10.30;99.90
8780;DHT22;62328;51.19929245;4.42130175;2023-04-03T09:34:18;10.40;99.90
8780;DHT22;62328;51.19929245;4.42130175;2023-04-03T09:36:55;10.50;99.90
8780;DHT22;62328;51.19929245;4.42130175;2023-04-03T09:39:29;10.60;99.90
8780;DHT22;62328;51.19929245;4.42130175;2023-04-03T09:42:00;10.60;99.90
8780;DHT22;62328;51.19929245;4.42130175;2023-04-03T09:44:32;10.70;99.90
8780;DHT22;62328;51.19929245;4.42130175;2023-04-03T09:47:18;10.80;99.90
8780;DHT22;62328;51.19929245;4.42130175;2023-04-03T09:49:48;10.80;99.90
8780;DHT22;62328;51.19929245;4.42130175;2023-04-03T09:52:24;10.90;99.90
8780;DHT22;62328;51.19929245;4.42130175;2023-04-03T09:55:16;11.00;99.90
8780;DHT22;62328;51.19929245;4.42130175;2023-04-03T09:57:44;11.00;99.90
8780;DHT22;62328;51.19929245;4.42130175;2023-04-03T10:00:21;11.00;99.90
8780;DHT22;62328;51.19929245;4.42130175;2023-04-03T10:02:58;11.10;99.90
8780;DHT22;62328;51.19929245;4.42130175;2023-04-03T10:05:35;11.20;99.90
8780;DHT22;62328;51.19929245;4.42130175;2023-04-03T10:08:21;11.30;99.90
8780;DHT22;62328;51.19929245;4.42130175;2023-04-03T10:11:18;11.40;99.90
8780;DHT22;62328;51.19929245;4.42130175;2023-04-03T10:13:54;11.50;99.90
8780;DHT22;62328;51.19929245;4.42130175;2023-04-03T10:16:35;11.50;99.90
8780;DHT22;62328;51.19929245;4.42130175;2023-04-03T10:19:30;11.70;99.90
8780;DHT22;62328;51.19929245;4.42130175;2023-04-03T10:22:04;11.70;99.90
8780;DHT22;62328;51.19929245;4.42130175;2023-04-03T10:24:44;11.80;99.90
8780;DHT22;62328;51.19929245;4.42130175;2023-04-03T10:27:26;11.80;99.90
8780;DHT22;62328;51.19929245;4.42130175;2023-04-03T10:29:59;11.90;99.90
8780;DHT22;62328;51.19929245;4.42130175;2023-04-03T10:32:58;11.90;99.90
8780;DHT22;62328;51.19929245;4.42130175;2023-04-03T10:35:44;12.00;99.90
8780;DHT22;62328;51.19929245;4.42130175;2023-04-03T10:38:21;12.10;99.90
8780;DHT22;62328;51.19929245;4.42130175;2023-04-03T10:40:57;12.20;99.90
8780;DHT22;62328;51.19929245;4.42130175;2023-04-03T10:43:55;12.20;99.90
8780;DHT22;62328;51.19929245;4.42130175;2023-04-03T10:46:33;12.20;99.90
8780;DHT22;62328;51.19929245;4.42130175;2023-04-03T10:49:14;12.30;99.90
8780;DHT22;62328;51.19929245;4.42130175;2023-04-03T10:51:47;12.20;99.90
8780;DHT22;62328;51.19929245;4.42130175;2023-04-03T10:54:20;12.20;99.90
8780;DHT22;62328;51.19929245;4.42130175;2023-04-03T10:56:53;12.30;99.90
8780;DHT22;62328;51.19929245;4.42130175;2023-04-03T10:59:28;12.40;99.90
8780;DHT22;62328;51.19929245;4.42130175;2023-04-03T11:01:57;12.50;99.90
8780;DHT22;62328;51.19929245;4.42130175;2023-04-03T11:04:29;12.50;99.90
8780;DHT22;62328;51.19929245;4.42130175;2023-04-03T11:07:01;12.50;99.90
8780;DHT22;62328;51.19929245;4.42130175;2023-04-03T11:09:31;12.60;99.90
8780;DHT22;62328;51.19929245;4.42130175;2023-04-03T11:12:02;12.70;99.90
8780;DHT22;62328;51.19929245;4.42130175;2023-04-03T11:14:39;12.80;99.90
8780;DHT22;62328;51.19929245;4.42130175;2023-04-03T11:17:22;12.80;99.90
8780;DHT22;62328;51.19929245;4.42130175;2023-04-03T11:20:03;12.80;99.90
8780;DHT22;62328;51.19929245;4.42130175;2023-04-03T11:22:42;12.80;99.90
8780;DHT22;62328;51.19929245;4.42130175;2023-04-03T11:25:19;12.90;99.90
8780;DHT22;62328;51.19929245;4.42130175;2023-04-03T11:27:52;12.80;99.90
8780;DHT22;62328;51.19929245;4.42130175;2023-04-03T11:30:28;12.80;99.90
8780;DHT22;62328;51.19929245;4.42130175;2023-04-03T11:33:41;12.80;99.90
8780;DHT22;62328;51.19929245;4.42130175;2023-04-03T11:36:19;12.80;99.90
8780;DHT22;62328;51.19929245;4.42130175;2023-04-03T11:38:51;12.80;99.90
8780;DHT22;62328;51.19929245;4.42130175;2023-04-03T11:41:28;12.90;99.90
8780;DHT22;62328;51.19929245;4.42130175;2023-04-03T11:44:01;13.00;99.90
8780;DHT22;62328;51.19929245;4.42130175;2023-04-03T11:46:52;13.00;99.90
8780;DHT22;62328;51.19929245;4.42130175;2023-04-03T11:55:54;13.10;99.90
8780;DHT22;62328;51.19929245;4.42130175;2023-04-03T11:58:28;13.10;99.90
8780;DHT22;62328;51.19929245;4.42130175;2023-04-03T12:01:07;13.20;99.90
8780;DHT22;62328;51.19929245;4.42130175;2023-04-03T12:04:05;13.20;99.90
8780;DHT22;62328;51.19929245;4.42130175;2023-04-03T12:09:59;13.30;99.90
8780;DHT22;62328;51.19929245;4.42130175;2023-04-03T12:12:42;13.20;99.90
8780;DHT22;62328;51.19929245;4.42130175;2023-04-03T12:15:46;13.10;99.90
8780;DHT22;62328;51.19929245;4.42130175;2023-04-03T12:21:15;13.20;99.90
8780;DHT22;62328;51.19929245;4.42130175;2023-04-03T12:27:04;13.30;99.90
8780;DHT22;62328;51.19929245;4.42130175;2023-04-03T12:29:38;13.30;99.90
8780;DHT22;62328;51.19929245;4.42130175;2023-04-03T12:32:24;13.40;99.90
8780;DHT22;62328;51.19929245;4.42130175;2023-04-03T12:35:08;13.40;99.90
8780;DHT22;62328;51.19929245;4.42130175;2023-04-03T12:40:51;13.50;99.90
8780;DHT22;62328;51.19929245;4.42130175;2023-04-03T12:43:42;13.50;99.90
8780;DHT22;62328;51.19929245;4.42130175;2023-04-03T12:46:17;13.60;99.90
8780;DHT22;62328;51.19929245;4.42130175;2023-04-03T12:48:55;13.60;99.90
8780;DHT22;62328;51.19929245;4.42130175;2023-04-03T12:51:34;13.70;99.90
8780;DHT22;62328;51.19929245;4.42130175;2023-04-03T12:57:17;13.70;99.90
8780;DHT22;62328;51.19929245;4.42130175;2023-04-03T12:59:47;13.70;99.90
8780;DHT22;62328;51.19929245;4.42130175;2023-04-03T13:02:25;13.70;99.90
8780;DHT22;62328;51.19929245;4.42130175;2023-04-03T13:04:55;13.60;99.90
8780;DHT22;62328;51.19929245;4.42130175;2023-04-03T13:07:29;13.50;99.90
8780;DHT22;62328;51.19929245;4.42130175;2023-04-03T13:10:00;13.50;99.90
8780;DHT22;62328;51.19929245;4.42130175;2023-04-03T13:12:30;13.50;99.90
8780;DHT22;62328;51.19929245;4.42130175;2023-04-03T13:14:59;13.60;99.90
8780;DHT22;62328;51.19929245;4.42130175;2023-04-03T13:17:29;13.60;99.90
8780;DHT22;62328;51.19929245;4.42130175;2023-04-03T13:20:12;13.70;99.90
8780;DHT22;62328;51.19929245;4.42130175;2023-04-03T13:22:49;13.70;99.90
8780;DHT22;62328;51.19929245;4.42130175;2023-04-03T13:25:21;13.70;99.10
8780;DHT22;62328;51.19929245;4.42130175;2023-04-03T13:27:53;13.70;98.10
8780;DHT22;62328;51.19929245;4.42130175;2023-04-03T13:30:28;13.70;99.20
8780;DHT22;62328;51.19929245;4.42130175;2023-04-03T13:33:01;13.80;99.90
8780;DHT22;62328;51.19929245;4.42130175;2023-04-03T13:35:37;13.90;99.90
8780;DHT22;62328;51.19929245;4.42130175;2023-04-03T13:38:21;14.00;99.90
8780;DHT22;62328;51.19929245;4.42130175;2023-04-03T13:40:52;14.10;99.90
8780;DHT22;62328;51.19929245;4.42130175;2023-04-03T13:43:27;14.20;99.90
8780;DHT22;62328;51.19929245;4.42130175;2023-04-03T13:46:00;14.30;99.90
8780;DHT22;62328;51.19929245;4.42130175;2023-04-03T13:48:42;14.30;99.10
8780;DHT22;62328;51.19929245;4.42130175;2023-04-03T13:51:19;14.20;95.80
8780;DHT22;62328;51.19929245;4.42130175;2023-04-03T13:53:52;14.10;95.50
8780;DHT22;62328;51.19929245;4.42130175;2023-04-03T13:56:30;14.00;97.10
8780;DHT22;62328;51.19929245;4.42130175;2023-04-03T13:59:05;14.20;98.30
8780;DHT22;62328;51.19929245;4.42130175;2023-04-03T14:01:42;14.50;99.90
8780;DHT22;62328;51.19929245;4.42130175;2023-04-03T14:04:20;14.70;99.90
8780;DHT22;62328;51.19929245;4.42130175;2023-04-03T14:06:50;14.90;99.90
8780;DHT22;62328;51.19929245;4.42130175;2023-04-03T14:09:21;15.10;98.70
8780;DHT22;62328;51.19929245;4.42130175;2023-04-03T14:11:54;15.10;97.10
8780;DHT22;62328;51.19929245;4.42130175;2023-04-03T14:14:29;15.30;98.30
8780;DHT22;62328;51.19929245;4.42130175;2023-04-03T14:17:02;15.30;97.70
8780;DHT22;62328;51.19929245;4.42130175;2023-04-03T14:19:35;15.40;96.30
8780;DHT22;62328;51.19929245;4.42130175;2023-04-03T14:22:15;15.50;97.20
8780;DHT22;62328;51.19929245;4.42130175;2023-04-03T14:24:50;15.60;96.30
8780;DHT22;62328;51.19929245;4.42130175;2023-04-03T14:27:23;15.90;98.00
8780;DHT22;62328;51.19929245;4.42130175;2023-04-03T14:29:58;16.10;99.10
8780;DHT22;62328;51.19929245;4.42130175;2023-04-03T14:32:32;16.20;96.60
8780;DHT22;62328;51.19929245;4.42130175;2023-04-03T14:35:02;16.40;96.90
8780;DHT22;62328;51.19929245;4.42130175;2023-04-03T14:37:31;16.50;94.60
8780;DHT22;62328;51.19929245;4.42130175;2023-04-03T14:40:03;16.70;96.50
8780;DHT22;62328;51.19929245;4.42130175;2023-04-03T14:42:33;16.90;95.50
8780;DHT22;62328;51.19929245;4.42130175;2023-04-03T14:45:07;17.10;95.40
8780;DHT22;62328;51.19929245;4.42130175;2023-04-03T14:47:42;17.10;93.00
8780;DHT22;62328;51.19929245;4.42130175;2023-04-03T14:50:16;17.20;94.10
8780;DHT22;62328;51.19929245;4.42130175;2023-04-03T14:52:47;17.40;94.70
8780;DHT22;62328;51.19929245;4.42130175;2023-04-03T14:55:15;17.50;94.00
8780;DHT22;62328;51.19929245;4.42130175;2023-04-03T14:57:43;17.50;90.90
8780;DHT22;62328;51.19929245;4.42130175;2023-04-03T15:00:22;17.20;90.00